Corner Windmill, TX

01:05 AM CST del 24 Gennaio 2017 (GMT -0600)
Big Bend - Chisos View | | Change Station
Avvisi attivi: High Wind Warning

Alt. 3497 ft 29.47 °N, 103.38 °W | Updated 2 minutes ago

Sereno
Sereno
72.0 °F
Sembra 74 °F
N
21.0
Vento Variabile Vento da Sud
Gusts 21.0 mph

Oggi
Massima -- | Minima -- °F
--% Possibilità di precip.
Ieri
Massima -- | Minima -- °F
Precip. -- in
Pressione 29.76 in
Visibilità 10.0 miglia
Nuvole Sereno
Indice di calore 74 °F
Punto di rugiada 26 °F
Umidità 18%
Piovosità 0.00 in
Spessore del manto nevoso Non disponibile.
7:45 AM 6:23 PM
Luna calante, 13% visible
METAR KPRS 240655Z AUTO 16004KT 10SM CLR 18/M03 A2976 RMK AO2 T01831027
Pressione 29.76 in
Visibilità 10.0 miglia
Nuvole Sereno
Indice di calore 74 °F
Punto di rugiada 26 °F
Umidità 18%
Piovosità 0.00 in
Spessore del manto nevoso Non disponibile.
7:45 AM 6:23 PM
Luna calante, 13% visible
METAR KPRS 240655Z AUTO 16004KT 10SM CLR 18/M03 A2976 RMK AO2 T01831027

Get Your Daily Forecast Email!

Thanks for signing up!

Be on the lookout for a verification email in your inbox.

You'll start receiving the daily forecast at 8 AM.

×

10-Day Weather Forecast

Almanac

Astronomia

Jan. 24, 2017 Alba Tramonto
Ora attuale
Crepuscolo civile
Crepuscolo nautico
Crepuscolo astronomico
Luna
Estensione della luce visibile
Lunghezza del giorno
Tomorrow will be .
, % of the Moon is Illuminated

Gli estremi di oggi

State Highs State Lows

Community

WunderPhotos

Upload Photos

1,962,540 foto caricate!

WunderBlog® & News

Nearby

Qualità dell'aria

  Qualità dell'aria Indice AQ Inquinante
Not available.

Profondità neve

Stazione Profondità Altitudine

Attività sismica

Città  Distanza Mag. Data & Ora
Minimo Magnitudo Mostrato è 2.5.

Temperature delle acque costiere

Località Temperatura

Stations

Stazioni meteo nelle vicinanze

Ubicazione della stazione Temp. Raffreddamento del vento Punto di rugiada Umidità Vento Precip. Alt. Aggiornato Tipo
                   

Watches & Warnings

High Wind Warning
Issued: 15:09 CST Jan. 23, 2017 – National Weather Service

... High Wind Warning in effect from midnight tonight to 6 PM CST
Tuesday...

* timing... from midnight tonight to 6 PM CST Tuesday.

* Winds... southwest to west 35 to 45 mph with gusts to 60 mph.

* Impacts... strong winds can cause power disruptions... hazards to
trailers and high profile vehicles and blowing dust that can
reduce visibility suddenly to near zero in areas where plowed
fields exist.

Precautionary/preparedness actions...

A High Wind Warning means a hazardous high wind event is expected
or occurring. Sustained wind speeds of at least 40 mph or gusts
of 58 mph or more can lead to property damage.